sensor_id;sensor_type;location;lat;lon;timestamp;P1;durP1;ratioP1;P2;durP2;ratioP2
50531;SDS011;36483;37.396;-122.212;2023-02-08T00:00:21;3.30;;;1.20;;
50531;SDS011;36483;37.396;-122.212;2023-02-08T00:02:47;3.35;;;1.25;;
50531;SDS011;36483;37.396;-122.212;2023-02-08T00:05:14;2.17;;;1.25;;
50531;SDS011;36483;37.396;-122.212;2023-02-08T00:07:41;2.97;;;1.50;;
50531;SDS011;36483;37.396;-122.212;2023-02-08T00:10:07;2.65;;;1.10;;
50531;SDS011;36483;37.396;-122.212;2023-02-08T00:12:35;2.47;;;1.33;;
50531;SDS011;36483;37.396;-122.212;2023-02-08T00:15:02;3.28;;;1.40;;
50531;SDS011;36483;37.396;-122.212;2023-02-08T00:17:28;4.25;;;1.52;;
50531;SDS011;36483;37.396;-122.212;2023-02-08T00:19:55;3.72;;;1.35;;
50531;SDS011;36483;37.396;-122.212;2023-02-08T00:22:21;6.00;;;1.67;;
50531;SDS011;36483;37.396;-122.212;2023-02-08T00:24:48;2.97;;;1.40;;
50531;SDS011;36483;37.396;-122.212;2023-02-08T00:27:16;2.55;;;1.23;;
50531;SDS011;36483;37.396;-122.212;2023-02-08T00:29:42;2.67;;;1.10;;
50531;SDS011;36483;37.396;-122.212;2023-02-08T00:32:08;4.05;;;1.40;;
50531;SDS011;36483;37.396;-122.212;2023-02-08T00:34:35;2.88;;;1.38;;
50531;SDS011;36483;37.396;-122.212;2023-02-08T00:37:03;3.72;;;1.50;;
50531;SDS011;36483;37.396;-122.212;2023-02-08T00:39:30;3.88;;;1.30;;
50531;SDS011;36483;37.396;-122.212;2023-02-08T00:41:56;1.98;;;1.10;;
50531;SDS011;36483;37.396;-122.212;2023-02-08T00:44:22;5.22;;;1.45;;
50531;SDS011;36483;37.396;-122.212;2023-02-08T00:46:48;5.63;;;1.50;;
50531;SDS011;36483;37.396;-122.212;2023-02-08T00:49:14;4.32;;;1.40;;
50531;SDS011;36483;37.396;-122.212;2023-02-08T00:51:41;2.85;;;1.48;;
50531;SDS011;36483;37.396;-122.212;2023-02-08T00:54:10;4.60;;;1.25;;
50531;SDS011;36483;37.396;-122.212;2023-02-08T00:56:39;4.07;;;1.33;;
50531;SDS011;36483;37.396;-122.212;2023-02-08T00:59:05;3.25;;;1.52;;
50531;SDS011;36483;37.396;-122.212;2023-02-08T01:01:31;4.07;;;1.58;;
50531;SDS011;36483;37.396;-122.212;2023-02-08T01:03:57;4.78;;;1.40;;
50531;SDS011;36483;37.396;-122.212;2023-02-08T01:06:23;5.63;;;1.20;;
50531;SDS011;36483;37.396;-122.212;2023-02-08T01:08:50;3.90;;;1.27;;
50531;SDS011;36483;37.396;-122.212;2023-02-08T01:11:18;3.88;;;1.35;;
50531;SDS011;36483;37.396;-122.212;2023-02-08T01:13:47;4.00;;;1.20;;
50531;SDS011;36483;37.396;-122.212;2023-02-08T01:18:45;3.45;;;1.40;;
50531;SDS011;36483;37.396;-122.212;2023-02-08T01:21:13;3.25;;;1.60;;
50531;SDS011;36483;37.396;-122.212;2023-02-08T01:23:41;3.90;;;1.20;;
50531;SDS011;36483;37.396;-122.212;2023-02-08T01:26:09;4.38;;;1.20;;
50531;SDS011;36483;37.396;-122.212;2023-02-08T01:28:35;3.35;;;1.38;;
50531;SDS011;36483;37.396;-122.212;2023-02-08T01:31:09;6.10;;;1.40;;
50531;SDS011;36483;37.396;-122.212;2023-02-08T01:33:36;2.22;;;1.40;;
50531;SDS011;36483;37.396;-122.212;2023-02-08T01:36:03;2.45;;;1.20;;
50531;SDS011;36483;37.396;-122.212;2023-02-08T01:38:29;3.95;;;1.40;;
50531;SDS011;36483;37.396;-122.212;2023-02-08T01:40:55;2.80;;;1.23;;
50531;SDS011;36483;37.396;-122.212;2023-02-08T01:43:31;3.40;;;1.42;;
50531;SDS011;36483;37.396;-122.212;2023-02-08T01:46:20;3.88;;;1.40;;
50531;SDS011;36483;37.396;-122.212;2023-02-08T01:48:47;2.83;;;1.30;;
50531;SDS011;36483;37.396;-122.212;2023-02-08T01:51:14;2.85;;;1.35;;
50531;SDS011;36483;37.396;-122.212;2023-02-08T01:53:52;2.97;;;1.30;;
50531;SDS011;36483;37.396;-122.212;2023-02-08T01:56:28;3.72;;;1.50;;
50531;SDS011;36483;37.396;-122.212;2023-02-08T01:59:03;2.75;;;1.35;;
50531;SDS011;36483;37.396;-122.212;2023-02-08T02:01:33;5.95;;;1.42;;
50531;SDS011;36483;37.396;-122.212;2023-02-08T02:04:02;4.40;;;1.52;;
50531;SDS011;36483;37.396;-122.212;2023-02-08T02:06:31;6.05;;;1.50;;
50531;SDS011;36483;37.396;-122.212;2023-02-08T02:09:06;6.95;;;1.65;;
50531;SDS011;36483;37.396;-122.212;2023-02-08T02:11:55;7.40;;;1.83;;
50531;SDS011;36483;37.396;-122.212;2023-02-08T02:14:22;6.13;;;1.95;;
50531;SDS011;36483;37.396;-122.212;2023-02-08T02:16:49;6.55;;;1.77;;
50531;SDS011;36483;37.396;-122.212;2023-02-08T02:19:23;7.35;;;1.55;;
50531;SDS011;36483;37.396;-122.212;2023-02-08T02:24:52;3.25;;;1.50;;
50531;SDS011;36483;37.396;-122.212;2023-02-08T02:43:25;5.47;;;1.65;;
50531;SDS011;36483;37.396;-122.212;2023-02-08T02:46:23;6.68;;;1.90;;
50531;SDS011;36483;37.396;-122.212;2023-02-08T02:49:03;2.70;;;1.45;;
50531;SDS011;36483;37.396;-122.212;2023-02-08T02:51:38;6.38;;;2.00;;
50531;SDS011;36483;37.396;-122.212;2023-02-08T02:59:08;4.40;;;2.22;;
50531;SDS011;36483;37.396;-122.212;2023-02-08T03:01:35;6.65;;;2.80;;
50531;SDS011;36483;37.396;-122.212;2023-02-08T03:04:16;5.75;;;2.50;;
50531;SDS011;36483;37.396;-122.212;2023-02-08T03:07:04;6.22;;;2.40;;
50531;SDS011;36483;37.396;-122.212;2023-02-08T03:15:27;4.55;;;2.28;;
50531;SDS011;36483;37.396;-122.212;2023-02-08T03:18:34;6.72;;;2.88;;
50531;SDS011;36483;37.396;-122.212;2023-02-08T03:30:08;6.25;;;2.70;;
50531;SDS011;36483;37.396;-122.212;2023-02-08T03:32:59;4.22;;;2.78;;
50531;SDS011;36483;37.396;-122.212;2023-02-08T03:38:03;4.90;;;2.50;;
50531;SDS011;36483;37.396;-122.212;2023-02-08T03:40:34;5.45;;;2.28;;
50531;SDS011;36483;37.396;-122.212;2023-02-08T03:43:33;4.45;;;2.20;;
50531;SDS011;36483;37.396;-122.212;2023-02-08T03:46:12;7.40;;;2.33;;
50531;SDS011;36483;37.396;-122.212;2023-02-08T03:48:45;3.95;;;1.92;;
50531;SDS011;36483;37.396;-122.212;2023-02-08T03:51:14;3.58;;;1.98;;
50531;SDS011;36483;37.396;-122.212;2023-02-08T03:53:40;5.65;;;1.70;;
50531;SDS011;36483;37.396;-122.212;2023-02-08T03:56:19;5.53;;;1.98;;
50531;SDS011;36483;37.396;-122.212;2023-02-08T03:58:50;4.57;;;2.10;;
50531;SDS011;36483;37.396;-122.212;2023-02-08T04:01:26;5.68;;;2.05;;
50531;SDS011;36483;37.396;-122.212;2023-02-08T04:03:55;5.65;;;1.90;;
50531;SDS011;36483;37.396;-122.212;2023-02-08T04:06:22;3.55;;;1.70;;
50531;SDS011;36483;37.396;-122.212;2023-02-08T04:08:48;4.95;;;2.00;;
50531;SDS011;36483;37.396;-122.212;2023-02-08T04:11:15;4.18;;;1.85;;
50531;SDS011;36483;37.396;-122.212;2023-02-08T04:13:41;3.70;;;1.80;;
50531;SDS011;36483;37.396;-122.212;2023-02-08T04:16:08;4.15;;;1.92;;
50531;SDS011;36483;37.396;-122.212;2023-02-08T04:18:36;3.20;;;1.52;;
50531;SDS011;36483;37.396;-122.212;2023-02-08T04:21:02;3.90;;;1.88;;
50531;SDS011;36483;37.396;-122.212;2023-02-08T04:23:29;4.05;;;2.00;;
50531;SDS011;36483;37.396;-122.212;2023-02-08T04:25:55;3.63;;;1.98;;
50531;SDS011;36483;37.396;-122.212;2023-02-08T04:28:21;4.35;;;1.83;;
50531;SDS011;36483;37.396;-122.212;2023-02-08T04:30:47;5.55;;;2.05;;
50531;SDS011;36483;37.396;-122.212;2023-02-08T04:33:13;4.20;;;2.00;;
50531;SDS011;36483;37.396;-122.212;2023-02-08T04:35:40;6.38;;;2.28;;
50531;SDS011;36483;37.396;-122.212;2023-02-08T04:38:10;3.65;;;1.85;;
50531;SDS011;36483;37.396;-122.212;2023-02-08T04:40:36;4.55;;;1.80;;
50531;SDS011;36483;37.396;-122.212;2023-02-08T04:43:02;4.05;;;1.77;;
50531;SDS011;36483;37.396;-122.212;2023-02-08T04:45:28;4.93;;;1.92;;
50531;SDS011;36483;37.396;-122.212;2023-02-08T04:47:56;3.00;;;1.67;;
50531;SDS011;36483;37.396;-122.212;2023-02-08T04:50:25;4.35;;;2.17;;
50531;SDS011;36483;37.396;-122.212;2023-02-08T04:52:51;4.68;;;1.92;;
50531;SDS011;36483;37.396;-122.212;2023-02-08T04:55:17;3.47;;;1.50;;
50531;SDS011;36483;37.396;-122.212;2023-02-08T04:57:43;5.28;;;2.25;;
50531;SDS011;36483;37.396;-122.212;2023-02-08T05:00:10;4.18;;;1.58;;
50531;SDS011;36483;37.396;-122.212;2023-02-08T05:02:36;4.10;;;1.58;;
50531;SDS011;36483;37.396;-122.212;2023-02-08T05:05:03;4.40;;;1.52;;
50531;SDS011;36483;37.396;-122.212;2023-02-08T05:07:29;6.40;;;1.83;;
50531;SDS011;36483;37.396;-122.212;2023-02-08T05:09:55;4.65;;;1.70;;
50531;SDS011;36483;37.396;-122.212;2023-02-08T05:12:21;3.45;;;2.00;;
50531;SDS011;36483;37.396;-122.212;2023-02-08T05:14:48;5.43;;;2.00;;
50531;SDS011;36483;37.396;-122.212;2023-02-08T05:17:14;5.25;;;1.75;;
50531;SDS011;36483;37.396;-122.212;2023-02-08T05:19:40;4.43;;;1.90;;
50531;SDS011;36483;37.396;-122.212;2023-02-08T05:22:06;4.15;;;1.58;;
50531;SDS011;36483;37.396;-122.212;2023-02-08T05:24:32;3.15;;;1.60;;
50531;SDS011;36483;37.396;-122.212;2023-02-08T05:26:58;3.63;;;1.90;;
50531;SDS011;36483;37.396;-122.212;2023-02-08T05:29:24;4.30;;;2.00;;
50531;SDS011;36483;37.396;-122.212;2023-02-08T05:31:50;3.08;;;1.60;;
50531;SDS011;36483;37.396;-122.212;2023-02-08T05:34:17;4.88;;;1.70;;
50531;SDS011;36483;37.396;-122.212;2023-02-08T05:36:43;3.40;;;1.60;;
50531;SDS011;36483;37.396;-122.212;2023-02-08T05:39:09;5.32;;;1.90;;
50531;SDS011;36483;37.396;-122.212;2023-02-08T05:41:35;3.92;;;1.52;;
50531;SDS011;36483;37.396;-122.212;2023-02-08T05:44:01;3.58;;;1.58;;
50531;SDS011;36483;37.396;-122.212;2023-02-08T05:46:27;5.90;;;2.22;;
50531;SDS011;36483;37.396;-122.212;2023-02-08T05:48:53;6.15;;;1.75;;
50531;SDS011;36483;37.396;-122.212;2023-02-08T05:51:20;2.50;;;1.73;;
50531;SDS011;36483;37.396;-122.212;2023-02-08T05:53:46;5.80;;;2.15;;
50531;SDS011;36483;37.396;-122.212;2023-02-08T05:56:12;3.60;;;1.80;;
50531;SDS011;36483;37.396;-122.212;2023-02-08T05:58:38;5.35;;;1.83;;
50531;SDS011;36483;37.396;-122.212;2023-02-08T06:01:08;2.88;;;1.83;;
50531;SDS011;36483;37.396;-122.212;2023-02-08T06:03:35;5.53;;;1.70;;
50531;SDS011;36483;37.396;-122.212;2023-02-08T06:06:01;3.60;;;1.73;;
50531;SDS011;36483;37.396;-122.212;2023-02-08T06:08:27;5.18;;;2.03;;
50531;SDS011;36483;37.396;-122.212;2023-02-08T06:10:53;2.95;;;1.60;;
50531;SDS011;36483;37.396;-122.212;2023-02-08T06:13:20;3.28;;;1.95;;
50531;SDS011;36483;37.396;-122.212;2023-02-08T06:15:46;3.47;;;1.88;;
50531;SDS011;36483;37.396;-122.212;2023-02-08T06:18:13;2.53;;;1.70;;
50531;SDS011;36483;37.396;-122.212;2023-02-08T06:20:39;4.05;;;1.80;;
50531;SDS011;36483;37.396;-122.212;2023-02-08T06:23:05;6.88;;;2.10;;
50531;SDS011;36483;37.396;-122.212;2023-02-08T06:25:31;4.38;;;1.70;;
50531;SDS011;36483;37.396;-122.212;2023-02-08T06:27:58;5.13;;;2.10;;
50531;SDS011;36483;37.396;-122.212;2023-02-08T06:30:24;2.85;;;1.90;;
50531;SDS011;36483;37.396;-122.212;2023-02-08T06:32:50;3.75;;;1.70;;
50531;SDS011;36483;37.396;-122.212;2023-02-08T06:35:16;3.53;;;2.00;;
50531;SDS011;36483;37.396;-122.212;2023-02-08T06:37:43;2.78;;;1.83;;
50531;SDS011;36483;37.396;-122.212;2023-02-08T06:40:09;4.97;;;1.90;;
50531;SDS011;36483;37.396;-122.212;2023-02-08T06:42:35;3.08;;;1.55;;
50531;SDS011;36483;37.396;-122.212;2023-02-08T06:45:02;3.85;;;1.77;;
50531;SDS011;36483;37.396;-122.212;2023-02-08T06:47:28;2.38;;;1.73;;
50531;SDS011;36483;37.396;-122.212;2023-02-08T06:49:54;3.40;;;1.95;;
50531;SDS011;36483;37.396;-122.212;2023-02-08T06:52:21;4.15;;;1.85;;
50531;SDS011;36483;37.396;-122.212;2023-02-08T06:54:47;5.97;;;2.00;;
50531;SDS011;36483;37.396;-122.212;2023-02-08T06:57:13;5.30;;;2.05;;
50531;SDS011;36483;37.396;-122.212;2023-02-08T06:59:40;4.15;;;2.03;;
50531;SDS011;36483;37.396;-122.212;2023-02-08T07:02:14;2.92;;;1.95;;
50531;SDS011;36483;37.396;-122.212;2023-02-08T07:04:41;3.53;;;1.90;;
50531;SDS011;36483;37.396;-122.212;2023-02-08T07:07:08;3.38;;;1.95;;
50531;SDS011;36483;37.396;-122.212;2023-02-08T07:09:34;3.33;;;1.80;;
50531;SDS011;36483;37.396;-122.212;2023-02-08T07:12:01;4.18;;;1.85;;
50531;SDS011;36483;37.396;-122.212;2023-02-08T07:14:37;3.85;;;2.00;;
50531;SDS011;36483;37.396;-122.212;2023-02-08T07:17:04;3.40;;;1.90;;
50531;SDS011;36483;37.396;-122.212;2023-02-08T07:19:30;3.10;;;1.65;;
50531;SDS011;36483;37.396;-122.212;2023-02-08T07:21:57;4.70;;;1.88;;
50531;SDS011;36483;37.396;-122.212;2023-02-08T07:24:35;3.03;;;1.70;;
50531;SDS011;36483;37.396;-122.212;2023-02-08T07:27:03;4.17;;;1.70;;
50531;SDS011;36483;37.396;-122.212;2023-02-08T07:29:31;3.85;;;1.90;;
50531;SDS011;36483;37.396;-122.212;2023-02-08T07:31:58;3.63;;;2.10;;
50531;SDS011;36483;37.396;-122.212;2023-02-08T07:34:25;3.58;;;1.65;;
50531;SDS011;36483;37.396;-122.212;2023-02-08T07:36:53;5.28;;;2.03;;
50531;SDS011;36483;37.396;-122.212;2023-02-08T07:39:20;6.13;;;1.85;;
50531;SDS011;36483;37.396;-122.212;2023-02-08T07:41:46;2.78;;;1.70;;
50531;SDS011;36483;37.396;-122.212;2023-02-08T07:44:13;2.55;;;1.80;;
50531;SDS011;36483;37.396;-122.212;2023-02-08T07:46:39;4.00;;;1.70;;
50531;SDS011;36483;37.396;-122.212;2023-02-08T07:49:05;2.65;;;1.85;;
50531;SDS011;36483;37.396;-122.212;2023-02-08T07:51:31;5.68;;;1.95;;
50531;SDS011;36483;37.396;-122.212;2023-02-08T07:53:57;2.65;;;1.77;;
50531;SDS011;36483;37.396;-122.212;2023-02-08T07:56:24;4.38;;;1.75;;
50531;SDS011;36483;37.396;-122.212;2023-02-08T07:58:50;3.08;;;1.58;;
50531;SDS011;36483;37.396;-122.212;2023-02-08T08:01:16;3.75;;;1.85;;
50531;SDS011;36483;37.396;-122.212;2023-02-08T08:03:42;3.95;;;2.03;;
50531;SDS011;36483;37.396;-122.212;2023-02-08T08:06:08;3.42;;;2.00;;
50531;SDS011;36483;37.396;-122.212;2023-02-08T08:08:34;3.15;;;1.77;;
50531;SDS011;36483;37.396;-122.212;2023-02-08T08:11:00;3.72;;;1.90;;
50531;SDS011;36483;37.396;-122.212;2023-02-08T08:13:27;3.47;;;1.90;;
50531;SDS011;36483;37.396;-122.212;2023-02-08T08:15:53;4.07;;;1.90;;
50531;SDS011;36483;37.396;-122.212;2023-02-08T08:18:19;2.78;;;1.80;;
50531;SDS011;36483;37.396;-122.212;2023-02-08T08:20:45;3.45;;;1.60;;
50531;SDS011;36483;37.396;-122.212;2023-02-08T08:23:11;2.13;;;1.67;;
50531;SDS011;36483;37.396;-122.212;2023-02-08T08:25:37;4.38;;;1.65;;
50531;SDS011;36483;37.396;-122.212;2023-02-08T08:28:04;4.32;;;1.90;;
50531;SDS011;36483;37.396;-122.212;2023-02-08T08:30:30;3.33;;;1.90;;
50531;SDS011;36483;37.396;-122.212;2023-02-08T08:32:56;4.18;;;1.95;;
50531;SDS011;36483;37.396;-122.212;2023-02-08T08:35:22;2.90;;;1.80;;
50531;SDS011;36483;37.396;-122.212;2023-02-08T08:37:48;4.32;;;1.80;;
50531;SDS011;36483;37.396;-122.212;2023-02-08T08:40:14;3.58;;;1.85;;
50531;SDS011;36483;37.396;-122.212;2023-02-08T08:42:41;2.28;;;1.67;;
50531;SDS011;36483;37.396;-122.212;2023-02-08T08:45:07;3.90;;;1.90;;
50531;SDS011;36483;37.396;-122.212;2023-02-08T08:47:34;4.68;;;1.98;;
50531;SDS011;36483;37.396;-122.212;2023-02-08T08:50:00;2.67;;;1.90;;
50531;SDS011;36483;37.396;-122.212;2023-02-08T08:52:26;4.85;;;1.77;;
50531;SDS011;36483;37.396;-122.212;2023-02-08T08:54:52;3.72;;;1.80;;
50531;SDS011;36483;37.396;-122.212;2023-02-08T08:57:19;5.18;;;2.15;;
50531;SDS011;36483;37.396;-122.212;2023-02-08T08:59:45;3.83;;;2.10;;
50531;SDS011;36483;37.396;-122.212;2023-02-08T09:02:12;3.33;;;1.60;;
50531;SDS011;36483;37.396;-122.212;2023-02-08T09:04:39;3.25;;;2.05;;
50531;SDS011;36483;37.396;-122.212;2023-02-08T09:07:06;3.00;;;1.90;;
50531;SDS011;36483;37.396;-122.212;2023-02-08T09:09:33;4.05;;;1.80;;
50531;SDS011;36483;37.396;-122.212;2023-02-08T09:11:59;3.53;;;1.90;;
50531;SDS011;36483;37.396;-122.212;2023-02-08T09:14:26;3.67;;;2.00;;
50531;SDS011;36483;37.396;-122.212;2023-02-08T09:16:52;5.47;;;1.85;;
50531;SDS011;36483;37.396;-122.212;2023-02-08T09:19:18;3.53;;;1.80;;
50531;SDS011;36483;37.396;-122.212;2023-02-08T09:21:44;4.65;;;1.83;;
50531;SDS011;36483;37.396;-122.212;2023-02-08T09:24:11;2.92;;;1.80;;
50531;SDS011;36483;37.396;-122.212;2023-02-08T09:26:37;3.72;;;1.98;;
50531;SDS011;36483;37.396;-122.212;2023-02-08T09:29:04;3.97;;;1.90;;
50531;SDS011;36483;37.396;-122.212;2023-02-08T09:31:32;7.07;;;2.05;;
50531;SDS011;36483;37.396;-122.212;2023-02-08T09:34:02;3.57;;;1.83;;
50531;SDS011;36483;37.396;-122.212;2023-02-08T09:36:30;4.38;;;1.90;;
50531;SDS011;36483;37.396;-122.212;2023-02-08T09:38:59;3.83;;;1.98;;
50531;SDS011;36483;37.396;-122.212;2023-02-08T09:47:10;3.72;;;1.95;;
50531;SDS011;36483;37.396;-122.212;2023-02-08T09:49:38;3.72;;;1.63;;
50531;SDS011;36483;37.396;-122.212;2023-02-08T09:52:12;3.33;;;1.90;;
50531;SDS011;36483;37.396;-122.212;2023-02-08T09:54:57;4.20;;;1.67;;
50531;SDS011;36483;37.396;-122.212;2023-02-08T09:57:26;2.60;;;1.90;;
50531;SDS011;36483;37.396;-122.212;2023-02-08T09:59:59;4.70;;;1.70;;
50531;SDS011;36483;37.396;-122.212;2023-02-08T10:02:29;3.40;;;1.77;;
50531;SDS011;36483;37.396;-122.212;2023-02-08T10:07:54;3.63;;;1.83;;
50531;SDS011;36483;37.396;-122.212;2023-02-08T10:10:44;3.60;;;1.67;;
50531;SDS011;36483;37.396;-122.212;2023-02-08T10:18:45;4.28;;;1.83;;
50531;SDS011;36483;37.396;-122.212;2023-02-08T10:24:21;4.03;;;2.00;;
50531;SDS011;36483;37.396;-122.212;2023-02-08T10:26:55;2.92;;;1.83;;
50531;SDS011;36483;37.396;-122.212;2023-02-08T10:32:02;4.68;;;1.80;;
50531;SDS011;36483;37.396;-122.212;2023-02-08T10:34:46;4.13;;;1.80;;
50531;SDS011;36483;37.396;-122.212;2023-02-08T10:37:18;4.35;;;2.17;;
50531;SDS011;36483;37.396;-122.212;2023-02-08T10:39:46;3.28;;;2.00;;
50531;SDS011;36483;37.396;-122.212;2023-02-08T10:42:15;3.17;;;1.90;;
50531;SDS011;36483;37.396;-122.212;2023-02-08T10:50:20;2.42;;;1.65;;
50531;SDS011;36483;37.396;-122.212;2023-02-08T10:52:50;4.00;;;2.00;;
50531;SDS011;36483;37.396;-122.212;2023-02-08T10:55:17;3.30;;;2.03;;
50531;SDS011;36483;37.396;-122.212;2023-02-08T10:57:45;5.60;;;1.88;;
50531;SDS011;36483;37.396;-122.212;2023-02-08T11:00:16;3.55;;;2.00;;
50531;SDS011;36483;37.396;-122.212;2023-02-08T11:02:45;3.45;;;1.92;;
50531;SDS011;36483;37.396;-122.212;2023-02-08T11:05:13;5.68;;;2.03;;
50531;SDS011;36483;37.396;-122.212;2023-02-08T11:07:40;4.25;;;2.03;;
50531;SDS011;36483;37.396;-122.212;2023-02-08T11:10:24;3.28;;;1.70;;
50531;SDS011;36483;37.396;-122.212;2023-02-08T11:13:01;3.50;;;1.80;;
50531;SDS011;36483;37.396;-122.212;2023-02-08T11:15:37;5.35;;;2.15;;
50531;SDS011;36483;37.396;-122.212;2023-02-08T11:18:14;4.13;;;1.67;;
50531;SDS011;36483;37.396;-122.212;2023-02-08T11:21:01;2.97;;;1.70;;
50531;SDS011;36483;37.396;-122.212;2023-02-08T11:23:32;3.42;;;2.20;;
50531;SDS011;36483;37.396;-122.212;2023-02-08T11:26:15;3.05;;;1.83;;
50531;SDS011;36483;37.396;-122.212;2023-02-08T11:28:42;3.13;;;1.90;;
50531;SDS011;36483;37.396;-122.212;2023-02-08T11:31:19;4.32;;;1.88;;
50531;SDS011;36483;37.396;-122.212;2023-02-08T11:33:59;3.80;;;1.95;;
50531;SDS011;36483;37.396;-122.212;2023-02-08T11:36:27;3.88;;;1.67;;
50531;SDS011;36483;37.396;-122.212;2023-02-08T11:38:54;3.22;;;1.77;;
50531;SDS011;36483;37.396;-122.212;2023-02-08T11:41:20;2.45;;;1.75;;
50531;SDS011;36483;37.396;-122.212;2023-02-08T11:43:58;2.70;;;1.60;;
50531;SDS011;36483;37.396;-122.212;2023-02-08T11:46:28;3.13;;;1.80;;
50531;SDS011;36483;37.396;-122.212;2023-02-08T11:48:56;2.83;;;1.83;;
50531;SDS011;36483;37.396;-122.212;2023-02-08T11:51:24;3.10;;;1.60;;
50531;SDS011;36483;37.396;-122.212;2023-02-08T11:53:51;3.65;;;1.80;;
50531;SDS011;36483;37.396;-122.212;2023-02-08T11:56:19;3.20;;;1.80;;
50531;SDS011;36483;37.396;-122.212;2023-02-08T12:01:39;2.60;;;1.75;;
50531;SDS011;36483;37.396;-122.212;2023-02-08T12:04:06;5.07;;;2.00;;
50531;SDS011;36483;37.396;-122.212;2023-02-08T12:09:31;5.35;;;2.10;;
50531;SDS011;36483;37.396;-122.212;2023-02-08T12:21:04;3.55;;;1.92;;
50531;SDS011;36483;37.396;-122.212;2023-02-08T12:37:24;3.60;;;1.90;;
50531;SDS011;36483;37.396;-122.212;2023-02-08T12:43:37;3.78;;;2.05;;
50531;SDS011;36483;37.396;-122.212;2023-02-08T12:54:25;3.97;;;1.77;;
50531;SDS011;36483;37.396;-122.212;2023-02-08T12:57:02;4.85;;;2.03;;
50531;SDS011;36483;37.396;-122.212;2023-02-08T12:59:35;5.32;;;1.90;;
50531;SDS011;36483;37.396;-122.212;2023-02-08T13:02:24;4.57;;;1.88;;
50531;SDS011;36483;37.396;-122.212;2023-02-08T13:04:56;3.20;;;1.70;;
50531;SDS011;36483;37.396;-122.212;2023-02-08T13:07:25;3.13;;;1.70;;
50531;SDS011;36483;37.396;-122.212;2023-02-08T13:13:15;3.50;;;1.83;;
50531;SDS011;36483;37.396;-122.212;2023-02-08T13:16:08;3.72;;;1.67;;
50531;SDS011;36483;37.396;-122.212;2023-02-08T13:21:21;4.28;;;2.00;;
50531;SDS011;36483;37.396;-122.212;2023-02-08T13:23:50;4.22;;;2.00;;
50531;SDS011;36483;37.396;-122.212;2023-02-08T13:26:18;4.13;;;1.85;;
50531;SDS011;36483;37.396;-122.212;2023-02-08T13:28:51;5.22;;;2.00;;
50531;SDS011;36483;37.396;-122.212;2023-02-08T13:31:22;2.70;;;1.83;;
50531;SDS011;36483;37.396;-122.212;2023-02-08T13:33:54;3.17;;;1.70;;
50531;SDS011;36483;37.396;-122.212;2023-02-08T13:38:54;4.72;;;2.30;;
50531;SDS011;36483;37.396;-122.212;2023-02-08T13:41:23;2.97;;;1.77;;
50531;SDS011;36483;37.396;-122.212;2023-02-08T13:43:55;3.42;;;2.08;;
50531;SDS011;36483;37.396;-122.212;2023-02-08T13:46:28;3.05;;;1.90;;
50531;SDS011;36483;37.396;-122.212;2023-02-08T13:49:10;2.97;;;1.90;;
50531;SDS011;36483;37.396;-122.212;2023-02-08T13:52:45;3.20;;;1.60;;
50531;SDS011;36483;37.396;-122.212;2023-02-08T14:08:20;3.05;;;1.60;;
50531;SDS011;36483;37.396;-122.212;2023-02-08T14:10:50;4.03;;;2.20;;
50531;SDS011;36483;37.396;-122.212;2023-02-08T14:13:28;4.18;;;2.10;;
50531;SDS011;36483;37.396;-122.212;2023-02-08T14:16:31;3.58;;;2.00;;
50531;SDS011;36483;37.396;-122.212;2023-02-08T14:18:56;3.80;;;1.90;;
50531;SDS011;36483;37.396;-122.212;2023-02-08T14:21:35;3.13;;;1.90;;
50531;SDS011;36483;37.396;-122.212;2023-02-08T14:24:04;3.65;;;1.95;;
50531;SDS011;36483;37.396;-122.212;2023-02-08T14:26:32;3.70;;;2.10;;
50531;SDS011;36483;37.396;-122.212;2023-02-08T14:29:01;3.88;;;2.17;;
50531;SDS011;36483;37.396;-122.212;2023-02-08T14:31:42;3.70;;;1.90;;
50531;SDS011;36483;37.396;-122.212;2023-02-08T14:37:27;3.22;;;2.10;;
50531;SDS011;36483;37.396;-122.212;2023-02-08T14:42:59;4.18;;;1.95;;
50531;SDS011;36483;37.396;-122.212;2023-02-08T14:45:26;5.32;;;2.47;;
50531;SDS011;36483;37.396;-122.212;2023-02-08T14:50:49;5.00;;;2.42;;
50531;SDS011;36483;37.396;-122.212;2023-02-08T14:53:20;5.10;;;2.95;;
50531;SDS011;36483;37.396;-122.212;2023-02-08T14:56:34;2.80;;;2.05;;
50531;SDS011;36483;37.396;-122.212;2023-02-08T14:58:50;4.50;;;2.15;;
50531;SDS011;36483;37.396;-122.212;2023-02-08T15:01:24;5.03;;;2.30;;
50531;SDS011;36483;37.396;-122.212;2023-02-08T15:03:56;3.80;;;1.90;;
50531;SDS011;36483;37.396;-122.212;2023-02-08T15:11:53;3.58;;;2.30;;
50531;SDS011;36483;37.396;-122.212;2023-02-08T15:14:21;3.45;;;2.03;;
50531;SDS011;36483;37.396;-122.212;2023-02-08T15:16:48;3.55;;;2.20;;
50531;SDS011;36483;37.396;-122.212;2023-02-08T15:19:19;5.05;;;2.60;;
50531;SDS011;36483;37.396;-122.212;2023-02-08T15:22:38;4.53;;;2.28;;
50531;SDS011;36483;37.396;-122.212;2023-02-08T15:25:22;5.68;;;2.70;;
50531;SDS011;36483;37.396;-122.212;2023-02-08T15:27:52;4.00;;;2.20;;
50531;SDS011;36483;37.396;-122.212;2023-02-08T15:30:28;3.53;;;2.13;;
50531;SDS011;36483;37.396;-122.212;2023-02-08T15:32:56;3.53;;;2.30;;
50531;SDS011;36483;37.396;-122.212;2023-02-08T15:35:23;4.78;;;2.58;;
50531;SDS011;36483;37.396;-122.212;2023-02-08T15:37:51;5.78;;;2.45;;
50531;SDS011;36483;37.396;-122.212;2023-02-08T15:40:22;4.88;;;2.30;;
50531;SDS011;36483;37.396;-122.212;2023-02-08T15:45:19;4.50;;;2.25;;
50531;SDS011;36483;37.396;-122.212;2023-02-08T15:47:47;6.25;;;2.33;;
50531;SDS011;36483;37.396;-122.212;2023-02-08T15:50:16;5.65;;;2.63;;
50531;SDS011;36483;37.396;-122.212;2023-02-08T15:52:43;6.18;;;2.53;;
50531;SDS011;36483;37.396;-122.212;2023-02-08T15:55:16;4.88;;;2.38;;
50531;SDS011;36483;37.396;-122.212;2023-02-08T16:00:27;4.70;;;2.55;;
50531;SDS011;36483;37.396;-122.212;2023-02-08T16:02:57;4.97;;;2.53;;
50531;SDS011;36483;37.396;-122.212;2023-02-08T16:05:31;6.72;;;2.88;;
50531;SDS011;36483;37.396;-122.212;2023-02-08T16:07:58;3.60;;;2.35;;
50531;SDS011;36483;37.396;-122.212;2023-02-08T16:10:30;4.80;;;2.75;;
50531;SDS011;36483;37.396;-122.212;2023-02-08T16:15:55;5.88;;;2.33;;
50531;SDS011;36483;37.396;-122.212;2023-02-08T16:18:34;3.75;;;2.50;;
50531;SDS011;36483;37.396;-122.212;2023-02-08T16:23:50;4.43;;;2.83;;
50531;SDS011;36483;37.396;-122.212;2023-02-08T16:26:23;6.85;;;2.70;;
50531;SDS011;36483;37.396;-122.212;2023-02-08T16:28:59;6.13;;;2.65;;
50531;SDS011;36483;37.396;-122.212;2023-02-08T16:31:28;5.28;;;3.03;;
50531;SDS011;36483;37.396;-122.212;2023-02-08T16:33:58;5.43;;;3.10;;
50531;SDS011;36483;37.396;-122.212;2023-02-08T16:36:34;7.10;;;3.67;;
50531;SDS011;36483;37.396;-122.212;2023-02-08T16:44:22;8.93;;;4.20;;
50531;SDS011;36483;37.396;-122.212;2023-02-08T16:46:51;7.05;;;4.13;;
50531;SDS011;36483;37.396;-122.212;2023-02-08T16:49:17;6.43;;;3.40;;
50531;SDS011;36483;37.396;-122.212;2023-02-08T16:51:44;5.25;;;3.60;;
50531;SDS011;36483;37.396;-122.212;2023-02-08T16:54:14;7.68;;;3.88;;
50531;SDS011;36483;37.396;-122.212;2023-02-08T16:56:42;6.28;;;3.65;;
50531;SDS011;36483;37.396;-122.212;2023-02-08T16:59:14;7.97;;;4.07;;
50531;SDS011;36483;37.396;-122.212;2023-02-08T17:01:41;8.50;;;4.70;;
50531;SDS011;36483;37.396;-122.212;2023-02-08T17:04:12;7.88;;;4.80;;
50531;SDS011;36483;37.396;-122.212;2023-02-08T17:06:40;7.60;;;4.75;;